LFRQ/UIP METAR and TAF weather

Enter ICAO airport designator
Station Type Date Time Source
LFRQ METAR 2021/07/30 07:00 UTC NOAA

LFRQ 300700Z AUTO 27012KT 240V310 9999 BKN017 BKN025 OVC038 15/13 Q1011 TEMPO 27015G28KT BKN025TCU


Station Type Date Time Source
LFRQ Decoded METAR 2021/07/30 07:00 UTC NOAA

Quimper, France (LFRQ) 47-58N 004-10W 94M
Jul 30, 2021 - 03:00 AM EDT / 2021.07.30 0700 UTC
Wind: from the W (270 degrees) at 14 MPH (12 KT) (direction variable):0
Visibility: greater than 7 mile(s):0
Sky conditions: overcast
Weather: Towering cumulus clouds observed
Temperature: 59 F (15 C)
Dew Point: 55 F (13 C)
Relative Humidity: 87%
Pressure (altimeter): 29.85 in. Hg (1011 hPa)
ob: LFRQ 300700Z AUTO 27012KT 240V310 9999 BKN017 BKN025 OVC038 15/13 Q1011 TEMPO 27015G28KT BKN025TCU
cycle: 7

Station Type Date Time Source
LFRQ TAF 2021/07/30 06:21 UTC NOAA

TAF LFRQ 300500Z 3006/3106 27010KT 9999 SCT040
TEMPO 3006/3016 27015G28KT -SHRA BKN025TCU
TEMPO 3103/3106 -SHRA BKN040TCU

Example: see airport list